Aviation Digital Data Service (ADDS)

Output produced by METARs form (1634 UTC 24 April 2014)
found at http://aviationweather.gov/adds/metars/
 
KLFT 241315Z 2413/2512 00000KT 2SM BR BKN025 
     FM241400 18007KT P6SM BKN025 
     FM241800 20011G17KT P6SM SCT035 
     FM250000 19008KT P6SM BKN020 
     FM250600 VRB04KT 5SM BR OVC009